Time;durP1;ratioP1;P1;durP2;ratioP2;P2;SDS_P1;SDS_P2;PMS_P1;PMS_P2;Temp;Humidity;BMP_temperature;BMP_pressure;BME280_temperature;BME280_humidity;BME280_pressure;Samples;Min_cycle;Max_cycle;Signal;HPM_P1;HPM_P2
2022/01/23 14:54:20;;;;;;;6.88;3.55;;;7.40;76.70;;;;;;6063233;23;1292940;-91
2022/01/23 14:56:46;;;;;;;7.32;3.08;;;7.40;76.60;;;;;;6072655;23;20254;-92
2022/01/23 14:59:13;;;;;;;8.32;3.60;;;7.90;76.90;;;;;;6024954;23;20068;-91
2022/01/23 15:01:41;;;;;;;9.15;3.50;;;7.80;76.80;;;;;;6022586;23;20015;-91
2022/01/23 15:04:10;;;;;;;6.47;3.22;;;7.40;76.50;;;;;;6028261;23;20089;-91
2022/01/23 15:06:41;;;;;;;11.18;5.05;;;7.40;76.40;;;;;;6025391;23;20119;-92
2022/01/23 15:09:11;;;;;;;7.60;2.70;;;7.40;76.40;;;;;;6026580;23;20049;-90
2022/01/23 15:11:38;;;;;;;6.05;3.38;;;7.40;76.40;;;;;;6026139;23;20022;-91
2022/01/23 15:14:07;;;;;;;9.25;3.33;;;7.40;76.40;;;;;;6030364;23;20492;-92
2022/01/23 15:16:33;;;;;;;7.10;2.95;;;7.80;76.50;;;;;;6028122;23;20017;-91
2022/01/23 15:18:59;;;;;;;7.60;4.22;;;7.40;76.40;;;;;;6026301;23;20007;-92
2022/01/23 15:21:25;;;;;;;7.20;3.90;;;7.30;76.40;;;;;;6022503;23;20013;-92
2022/01/23 15:23:55;;;;;;;7.45;3.30;;;7.80;76.60;;;;;;6026211;23;20011;-90
2022/01/23 15:26:22;;;;;;;7.90;4.00;;;7.70;76.50;;;;;;6027451;23;20088;-88
2022/01/23 15:28:49;;;;;;;11.05;3.78;;;7.80;76.60;;;;;;6025151;23;20014;-92
2022/01/23 15:31:15;;;;;;;2.17;1.38;;;7.50;76.50;;;;;;6028728;23;20018;-91
2022/01/23 15:33:41;;;;;;;11.20;4.28;;;7.30;76.40;;;;;;6032158;23;20031;-89
2022/01/23 15:36:07;;;;;;;8.52;4.00;;;7.30;76.40;;;;;;6049558;23;20017;-90
2022/01/23 15:38:36;;;;;;;11.38;4.30;;;7.30;76.30;;;;;;6047385;23;20002;-89
2022/01/23 15:41:02;;;;;;;9.88;4.15;;;7.70;76.50;;;;;;6052685;23;20018;-93
2022/01/23 15:43:28;;;;;;;7.30;3.70;;;7.30;76.30;;;;;;6032509;23;20014;-86
2022/01/23 15:45:54;;;;;;;7.60;3.55;;;7.40;76.50;;;;;;6025178;23;20014;-91
2022/01/23 15:48:20;;;;;;;9.32;4.22;;;7.40;76.40;;;;;;6023945;23;20025;-93
2022/01/23 15:50:46;;;;;;;10.35;5.72;;;7.60;76.50;;;;;;6023494;23;20719;-94
2022/01/23 15:53:12;;;;;;;14.32;6.47;;;7.40;76.40;;;;;;6023132;23;20018;-93
2022/01/23 15:55:38;;;;;;;9.45;4.40;;;7.40;76.50;;;;;;6025629;23;20420;-93
2022/01/23 15:58:04;;;;;;;15.85;8.13;;;7.50;76.40;;;;;;6027253;23;20340;-95
2022/01/23 16:00:32;;;;;;;3.80;2.20;;;8.00;76.60;;;;;;6026372;23;20006;-95
2022/01/23 16:02:58;;;;;;;9.80;4.85;;;7.80;76.50;;;;;;6026782;23;20023;-93
2022/01/23 16:05:24;;;;;;;11.27;5.35;;;7.50;76.30;;;;;;6029518;23;20021;-87
2022/01/23 16:07:49;;;;;;;10.48;4.80;;;7.40;76.20;;;;;;6024611;23;20467;-92
2022/01/23 16:10:15;;;;;;;10.75;4.82;;;7.80;76.50;;;;;;6026651;23;20991;-93
2022/01/23 16:12:42;;;;;;;10.70;4.53;;;7.50;76.30;;;;;;6027752;23;20089;-93
2022/01/23 16:15:11;;;;;;;12.50;5.38;;;7.50;76.20;;;;;;6023660;23;20010;-94
2022/01/23 16:17:37;;;;;;;10.55;4.65;;;7.50;76.10;;;;;;6027917;23;20019;-93
2022/01/23 16:20:05;;;;;;;16.60;5.80;;;7.80;76.20;;;;;;6022538;23;20022;-92
2022/01/23 16:22:31;;;;;;;13.05;6.15;;;7.50;76.00;;;;;;6021740;23;20070;-92
2022/01/23 16:24:57;;;;;;;9.48;5.13;;;7.50;76.10;;;;;;6028197;23;20015;-93
2022/01/23 16:27:22;;;;;;;13.05;4.85;;;7.70;76.20;;;;;;6025812;23;20026;-93
2022/01/23 16:29:48;;;;;;;11.13;3.90;;;7.50;76.00;;;;;;6026587;23;20018;-93
2022/01/23 16:32:14;;;;;;;11.68;5.47;;;7.50;75.90;;;;;;6026330;23;20030;-95
2022/01/23 16:34:40;;;;;;;12.07;5.97;;;8.20;76.20;;;;;;6025919;23;20066;-93
2022/01/23 16:37:06;;;;;;;10.63;4.88;;;7.50;75.70;;;;;;6026830;23;20014;-93
2022/01/23 16:39:32;;;;;;;14.80;5.22;;;7.80;75.90;;;;;;6051901;23;20044;-92
2022/01/23 16:41:58;;;;;;;9.30;4.13;;;7.80;75.90;;;;;;6028839;23;20010;-94
2022/01/23 16:44:25;;;;;;;15.00;4.72;;;8.10;76.00;;;;;;6028154;23;20013;-92
2022/01/23 16:46:52;;;;;;;8.93;4.53;;;8.10;75.90;;;;;;6033026;23;20018;-92
2022/01/23 16:49:19;;;;;;;12.27;4.97;;;7.60;75.70;;;;;;6037220;23;20079;-91
2022/01/23 16:51:45;;;;;;;9.18;4.28;;;7.90;75.90;;;;;;6043378;23;20010;-92
2022/01/23 16:54:14;;;;;;;9.65;5.00;;;7.60;75.80;;;;;;6041815;23;20018;-93
2022/01/23 16:56:41;;;;;;;11.98;5.43;;;8.00;75.80;;;;;;6029931;23;20129;-94
2022/01/23 16:59:10;;;;;;;10.35;5.47;;;7.60;76.20;;;;;;6028827;23;20496;-93
2022/01/23 17:01:36;;;;;;;14.20;6.15;;;8.00;75.90;;;;;;6026232;23;20006;-95
2022/01/23 17:04:03;;;;;;;21.25;6.75;;;7.80;75.80;;;;;;6026471;23;20461;-90
2022/01/23 17:06:31;;;;;;;14.85;6.25;;;7.80;75.70;;;;;;6024394;23;20052;-93
2022/01/23 17:08:58;;;;;;;13.40;5.63;;;7.90;75.80;;;;;;6027061;23;20069;-90
2022/01/23 17:11:24;;;;;;;14.45;6.20;;;7.60;75.60;;;;;;6049863;23;20010;-93
2022/01/23 17:13:49;;;;;;;13.20;5.55;;;7.60;75.70;;;;;;6026171;23;20108;-93
2022/01/23 17:16:17;;;;;;;14.35;6.10;;;7.60;75.70;;;;;;6028606;23;20102;-94
2022/01/23 17:18:52;;;;;;;12.80;5.00;;;7.90;75.80;;;;;;6041890;23;20021;-96
